createdAt,value
2023-12-30T00:00:30.034Z,15.50
2023-12-30T00:05:31.709Z,15.50
2023-12-30T00:10:33.352Z,15.50
2023-12-30T00:15:35.218Z,15.50
2023-12-30T00:20:36.838Z,15.50
2023-12-30T00:25:38.564Z,15.50
2023-12-30T00:30:40.284Z,15.50
2023-12-30T00:35:41.902Z,15.50
2023-12-30T00:40:43.585Z,15.50
2023-12-30T00:45:47.021Z,15.40
2023-12-30T00:50:50.030Z,15.50
2023-12-30T00:55:51.704Z,15.40
2023-12-30T01:00:53.473Z,15.30
2023-12-30T01:05:55.213Z,15.40
2023-12-30T01:10:56.821Z,15.40
2023-12-30T01:15:58.723Z,15.50
2023-12-30T01:21:00.517Z,15.40
2023-12-30T01:26:02.256Z,15.40
2023-12-30T01:31:04.440Z,15.40
2023-12-30T01:36:06.584Z,15.40
2023-12-30T01:41:08.611Z,15.40
2023-12-30T01:46:10.973Z,15.40
2023-12-30T01:51:24.308Z,15.30
2023-12-30T01:56:28.551Z,15.30
2023-12-30T02:06:50.675Z,15.30
2023-12-30T02:11:52.443Z,15.30
2023-12-30T02:16:54.254Z,15.30
2023-12-30T02:21:55.989Z,15.30
2023-12-30T02:26:57.683Z,15.30
2023-12-30T02:31:59.344Z,15.30
2023-12-30T02:37:00.994Z,15.30
2023-12-30T02:42:02.699Z,15.30
2023-12-30T02:47:04.449Z,15.30
2023-12-30T02:52:06.236Z,15.20
2023-12-30T02:57:07.981Z,15.30
2023-12-30T03:02:09.936Z,15.30
2023-12-30T03:07:11.697Z,15.30
2023-12-30T03:12:13.304Z,15.20
2023-12-30T03:17:15.053Z,15.20
2023-12-30T03:22:16.860Z,15.20
2023-12-30T03:27:18.505Z,15.20
2023-12-30T03:32:20.185Z,15.20
2023-12-30T03:37:21.975Z,15.20
2023-12-30T03:42:23.720Z,15.20
2023-12-30T03:47:25.544Z,15.10
2023-12-30T03:52:27.533Z,15.20
2023-12-30T03:57:29.291Z,15.20
2023-12-30T04:02:31.159Z,15.20
2023-12-30T04:07:33.498Z,15.30
2023-12-30T04:12:36.710Z,15.20
2023-12-30T04:17:38.666Z,15.30
2023-12-30T04:22:40.702Z,15.30
2023-12-30T04:27:42.418Z,15.30
2023-12-30T04:32:44.068Z,15.20
2023-12-30T04:37:46.058Z,15.20
2023-12-30T04:42:47.766Z,15.20
2023-12-30T04:47:49.455Z,15.30
2023-12-30T04:52:51.190Z,15.30
2023-12-30T04:57:52.888Z,15.30
2023-12-30T05:02:54.677Z,15.30
2023-12-30T05:07:56.555Z,15.30
2023-12-30T05:12:58.301Z,15.30
2023-12-30T05:18:00.054Z,15.20
2023-12-30T05:23:02.469Z,15.30
2023-12-30T05:28:04.342Z,15.30
2023-12-30T05:33:07.706Z,15.30
2023-12-30T05:38:13.430Z,15.30
2023-12-30T05:43:15.092Z,15.30
2023-12-30T05:48:17.021Z,15.30
2023-12-30T05:53:19.055Z,15.40
2023-12-30T05:58:20.736Z,15.70
2023-12-30T06:03:22.542Z,15.90
2023-12-30T06:08:25.194Z,16.10
2023-12-30T06:13:27.020Z,16.30
2023-12-30T06:18:32.133Z,16.50
2023-12-30T06:23:34.169Z,16.60
2023-12-30T06:28:36.035Z,16.60
2023-12-30T06:33:37.806Z,16.60
2023-12-30T06:38:39.737Z,16.60
2023-12-30T06:43:41.519Z,16.60
2023-12-30T06:48:43.359Z,16.60
2023-12-30T06:53:45.161Z,16.50
2023-12-30T06:58:47.069Z,16.50
2023-12-30T07:03:49.468Z,16.50
2023-12-30T07:08:51.100Z,16.60
2023-12-30T07:13:52.862Z,16.70
2023-12-30T07:18:54.642Z,16.80
2023-12-30T07:23:56.471Z,16.90
2023-12-30T07:28:58.170Z,17.00
2023-12-30T07:34:01.070Z,16.90
2023-12-30T07:39:02.947Z,16.90
2023-12-30T07:44:04.694Z,16.90
2023-12-30T07:49:06.620Z,17.00
2023-12-30T07:54:08.419Z,17.10
2023-12-30T07:59:11.253Z,17.20
2023-12-30T08:04:14.610Z,17.40
2023-12-30T08:09:16.568Z,17.50
2023-12-30T08:14:18.700Z,17.70
2023-12-30T08:19:20.444Z,17.80
2023-12-30T08:24:22.406Z,17.80
2023-12-30T08:29:24.125Z,17.80
2023-12-30T08:34:29.174Z,17.70
2023-12-30T08:39:31.076Z,17.70
2023-12-30T08:44:33.018Z,17.70
2023-12-30T08:49:34.810Z,17.80
2023-12-30T08:54:38.747Z,18.00
2023-12-30T08:59:41.147Z,18.10
2023-12-30T09:04:42.967Z,18.10
2023-12-30T09:09:44.807Z,18.00
2023-12-30T09:14:46.977Z,18.00
2023-12-30T09:19:49.290Z,18.00
2023-12-30T09:24:51.082Z,18.00
2023-12-30T09:29:52.792Z,18.10
2023-12-30T09:34:54.875Z,18.10
2023-12-30T09:39:56.798Z,18.10
2023-12-30T09:44:59.357Z,18.00
2023-12-30T09:50:00.983Z,18.00
2023-12-30T09:55:02.718Z,18.10
2023-12-30T10:00:06.733Z,18.20
2023-12-30T10:05:08.763Z,18.20
2023-12-30T10:10:10.709Z,18.10
2023-12-30T10:15:12.757Z,18.00
2023-12-30T10:20:18.844Z,18.00
2023-12-30T10:25:20.693Z,18.10
2023-12-30T10:30:22.652Z,18.10
2023-12-30T10:35:24.766Z,18.10
2023-12-30T10:40:26.824Z,18.00
2023-12-30T10:45:28.789Z,18.00
2023-12-30T10:50:31.895Z,18.00
2023-12-30T10:55:34.650Z,18.10
2023-12-30T11:00:37.334Z,18.10
2023-12-30T11:05:46.675Z,18.00
2023-12-30T11:10:50.945Z,17.90
2023-12-30T11:15:52.816Z,17.90
2023-12-30T11:20:54.649Z,18.00
2023-12-30T11:25:56.412Z,18.10
2023-12-30T11:30:59.293Z,18.10
2023-12-30T11:36:01.479Z,18.10
2023-12-30T11:41:04.091Z,18.00
2023-12-30T11:46:06.354Z,18.00
2023-12-30T11:51:08.325Z,18.00
2023-12-30T11:56:11.355Z,18.00
2023-12-30T12:01:14.337Z,17.90
2023-12-30T12:06:16.473Z,17.80
2023-12-30T12:11:18.240Z,17.80
2023-12-30T12:16:19.888Z,17.80
2023-12-30T12:21:22.104Z,17.70
2023-12-30T12:26:24.282Z,17.70
2023-12-30T12:31:30.242Z,17.60
2023-12-30T12:36:31.985Z,17.60
2023-12-30T12:41:34.830Z,17.60
2023-12-30T12:46:36.777Z,17.60
2023-12-30T12:51:40.430Z,17.60
2023-12-30T12:56:44.011Z,17.60
2023-12-30T13:01:46.496Z,17.50
2023-12-30T13:06:48.458Z,17.60
2023-12-30T13:11:50.379Z,17.80
2023-12-30T13:16:52.570Z,17.90
2023-12-30T13:21:54.675Z,18.00
2023-12-30T13:26:57.102Z,18.00
2023-12-30T13:31:59.150Z,18.00
2023-12-30T13:37:06.314Z,17.90
2023-12-30T13:42:10.623Z,17.90
2023-12-30T13:47:30.980Z,17.90
2023-12-30T13:52:33.614Z,17.90
2023-12-30T13:57:35.374Z,17.70
2023-12-30T14:02:41.537Z,17.70
2023-12-30T14:07:45.212Z,17.70
2023-12-30T14:12:48.626Z,17.70
2023-12-30T14:17:50.351Z,17.70
2023-12-30T14:22:52.122Z,17.60
2023-12-30T14:27:53.734Z,17.60
2023-12-30T14:32:56.085Z,17.60
2023-12-30T14:37:58.023Z,17.80
2023-12-30T14:42:59.963Z,17.90
2023-12-30T14:48:01.959Z,18.00
2023-12-30T14:53:04.985Z,18.10
2023-12-30T14:58:09.696Z,18.10
2023-12-30T15:03:11.693Z,18.00
2023-12-30T15:08:13.696Z,18.00
2023-12-30T15:13:16.039Z,18.00
2023-12-30T15:18:17.938Z,18.00
2023-12-30T15:23:19.670Z,17.90
2023-12-30T15:28:21.366Z,17.90
2023-12-30T15:33:23.396Z,17.90
2023-12-30T15:38:25.754Z,17.90
2023-12-30T15:43:29.023Z,17.80
2023-12-30T15:48:30.975Z,17.90
2023-12-30T15:53:33.900Z,18.00
2023-12-30T15:58:36.729Z,18.20
2023-12-30T16:03:38.447Z,18.30
2023-12-30T16:08:40.175Z,18.40
2023-12-30T16:13:42.006Z,18.50
2023-12-30T16:18:43.862Z,18.40
2023-12-30T16:23:46.179Z,18.40
2023-12-30T16:28:48.408Z,18.30
2023-12-30T16:33:51.032Z,18.20
2023-12-30T16:38:55.371Z,18.10
2023-12-30T16:43:58.657Z,18.10
2023-12-30T16:49:00.792Z,18.20
2023-12-30T16:54:03.522Z,18.30
2023-12-30T16:59:05.238Z,18.30
2023-12-30T17:04:07.664Z,18.40
2023-12-30T17:09:09.548Z,18.40
2023-12-30T17:14:11.349Z,18.50
2023-12-30T17:19:13.004Z,18.60
2023-12-30T17:24:16.096Z,18.70
2023-12-30T17:29:17.748Z,18.80
2023-12-30T17:34:19.598Z,18.80
2023-12-30T17:39:21.339Z,18.80
2023-12-30T17:44:23.028Z,18.70
2023-12-30T17:49:24.770Z,18.60
2023-12-30T17:54:26.581Z,18.50
2023-12-30T17:59:28.264Z,18.50
2023-12-30T18:04:30.182Z,18.50
2023-12-30T18:09:32.169Z,18.50
2023-12-30T18:14:34.110Z,18.40
2023-12-30T18:19:39.009Z,18.40
2023-12-30T18:24:40.826Z,18.30
2023-12-30T18:29:43.034Z,18.30
2023-12-30T18:34:44.844Z,18.30
2023-12-30T18:39:46.597Z,18.30
2023-12-30T18:44:48.317Z,18.30
2023-12-30T18:49:49.944Z,18.30
2023-12-30T18:54:51.566Z,18.30
2023-12-30T18:59:54.802Z,18.20
2023-12-30T19:04:57.153Z,18.20
2023-12-30T19:09:58.890Z,18.20
2023-12-30T19:15:02.624Z,18.20
2023-12-30T19:20:05.073Z,18.20
2023-12-30T19:25:07.059Z,18.20
2023-12-30T19:30:09.186Z,18.20
2023-12-30T19:35:11.444Z,18.10
2023-12-30T19:40:13.516Z,18.10
2023-12-30T19:45:15.481Z,18.10
2023-12-30T19:50:17.174Z,18.10
2023-12-30T19:55:18.995Z,18.10
2023-12-30T20:00:20.849Z,18.10
2023-12-30T20:05:22.593Z,18.00
2023-12-30T20:10:24.374Z,18.00
2023-12-30T20:15:26.410Z,18.00
2023-12-30T20:20:28.873Z,18.00
2023-12-30T20:25:32.202Z,18.00
2023-12-30T20:30:34.233Z,18.00
2023-12-30T20:35:35.940Z,18.00
2023-12-30T20:40:37.759Z,18.00
2023-12-30T20:45:39.625Z,18.00
2023-12-30T20:50:41.627Z,17.90
2023-12-30T20:55:43.406Z,17.90
2023-12-30T21:00:45.251Z,17.90
2023-12-30T21:05:47.010Z,17.90
2023-12-30T21:10:48.887Z,17.80
2023-12-30T21:15:50.764Z,17.80
2023-12-30T21:20:52.632Z,17.70
2023-12-30T21:25:55.553Z,17.70
2023-12-30T21:30:58.622Z,17.70
2023-12-30T21:36:01.941Z,17.70
2023-12-30T21:41:05.369Z,17.60
2023-12-30T21:46:07.117Z,17.60
2023-12-30T21:51:09.141Z,17.60
2023-12-30T21:56:11.839Z,17.60
2023-12-30T22:01:13.559Z,17.60
2023-12-30T22:06:15.745Z,17.50
2023-12-30T22:11:18.094Z,17.60
2023-12-30T22:16:19.753Z,17.50
2023-12-30T22:21:21.344Z,17.50
2023-12-30T22:26:23.015Z,17.50
2023-12-30T22:31:24.800Z,17.50
2023-12-30T22:36:28.111Z,17.50
2023-12-30T22:41:29.827Z,17.40
2023-12-30T22:46:31.549Z,17.30
2023-12-30T22:51:33.318Z,17.30
2023-12-30T22:56:35.029Z,17.30
2023-12-30T23:01:36.726Z,17.30
2023-12-30T23:06:38.395Z,17.20
2023-12-30T23:11:40.184Z,17.20
2023-12-30T23:16:44.262Z,17.20
2023-12-30T23:21:46.111Z,17.20
2023-12-30T23:26:47.849Z,17.20
2023-12-30T23:31:49.606Z,17.20
2023-12-30T23:36:51.411Z,17.20
2023-12-30T23:41:53.096Z,17.20
2023-12-30T23:46:54.815Z,17.20
2023-12-30T23:51:56.435Z,17.10
2023-12-30T23:56:58.214Z,17.10
